CST,Max TemperatureF,Mean TemperatureF,Min TemperatureF,Max Dew PointF,MeanDew PointF,Min DewpointF,Max Humidity, Mean Humidity, Min Humidity, Max Sea Level PressureIn, Mean Sea Level PressureIn, Min Sea Level PressureIn, Max VisibilityMiles, Mean VisibilityMiles, Min VisibilityMiles, Max Wind SpeedMPH, Mean Wind SpeedMPH, Max Gust SpeedMPH,PrecipitationIn, CloudCover, Events, WindDirDegrees
2012-12-1,60,44,28,52,39,27,100,85,62,30.16,30.02,29.86,10,3,0,21,7,28,0.01,4,Fog-Rain,157
2012-12-2,62,49,36,52,44,35,97,84,52,30.09,30.00,29.86,8,4,1,13,8,,0.01,4,Fog,93
2012-12-3,68,57,46,59,54,44,100,86,70,30.05,29.87,29.73,10,4,0,26,9,37,0.24,8,Fog-Rain,179
2012-12-4,55,44,30,42,32,18,74,59,42,30.32,30.09,29.92,10,10,10,21,11,26,0.00,1,,293
2012-12-5,36,30,24,27,21,14,85,67,54,30.46,30.38,30.23,10,10,10,10,7,,0.00,1,,47
2012-12-6,45,39,33,37,31,26,80,70,61,30.23,30.02,29.90,10,10,9,13,8,,0.00,4,Rain,196
2012-12-7,42,40,37,38,33,30,86,76,65,29.99,29.94,29.91,10,10,5,10,6,,0.00,7,Rain,7
2012-12-8,37,35,33,34,32,29,93,87,73,30.13,30.00,29.88,10,6,2,15,8,,0.16,8,Rain-Snow,12
2012-12-9,39,37,35,38,35,29,96,88,73,30.12,29.87,29.68,10,5,1,17,13,22,0.23,8,Rain,88
2012-12-10,36,33,28,34,27,19,93,81,64,29.96,29.79,29.67,10,8,2,18,11,25,0.00,8,Snow,297
2012-12-11,33,29,25,25,21,14,82,69,48,30.13,30.00,29.94,10,10,7,21,9,29,0.00,5,Snow,231
2012-12-12,46,37,28,26,23,20,72,58,37,30.27,30.22,30.13,10,10,10,17,11,25,0.00,1,,211
2012-12-13,48,40,32,28,24,20,73,56,33,30.25,30.17,30.08,10,10,10,20,12,28,0.00,0,,213
2012-12-14,46,36,26,35,30,22,89,78,51,30.22,30.15,30.04,10,8,4,9,4,,0.00,0,,145
2012-12-15,48,44,39,45,40,30,93,84,60,30.01,29.70,29.55,10,5,2,20,10,29,0.33,8,Rain,166
2012-12-16,48,42,37,45,38,32,90,83,76,29.72,29.62,29.54,10,8,3,18,10,21,0.03,8,Rain,260
2012-12-17,37,32,26,32,27,22,86,78,70,29.76,29.73,29.69,10,8,6,7,5,,0.00,7,,305
2012-12-18,37,30,24,36,30,21,93,88,75,29.81,29.69,29.62,7,3,1,12,5,18,0.05,8,Rain-Snow,164
2012-12-19,39,34,28,37,29,25,93,83,73,30.08,29.98,29.83,8,4,2,17,8,24,0.10,6,Rain,335
2012-12-20,44,38,33,43,35,30,93,89,85,29.83,29.38,29.05,5,2,1,26,20,38,1.48,8,Rain-Snow,40
2012-12-21,34,26,18,30,21,11,87,77,71,30.19,29.80,29.41,10,7,1,28,22,43,0.00,6,Snow,310
2012-12-22,30,22,14,18,14,8,85,73,59,30.22,30.12,29.96,10,10,8,9,6,,0.00,0,,253
2012-12-23,28,22,16,23,18,13,93,80,74,30.07,30.01,29.91,10,8,2,12,5,,0.00,5,,337
2012-12-24,30,27,24,24,22,18,82,79,75,30.12,29.98,29.91,10,10,8,12,7,,0.00,8,,342
2012-12-25,27,24,21,22,18,16,81,74,69,30.34,30.29,30.15,10,9,1,13,9,,0.00,8,Snow,350
2012-12-26,30,28,26,25,21,19,80,71,64,30.25,30.12,30.03,10,10,2,22,17,30,0.00,8,Snow,23
2012-12-27,30,28,27,23,21,19,81,75,69,30.21,30.16,30.11,10,10,10,12,9,,0.00,8,,347
2012-12-28,32,30,28,27,26,23,93,85,79,30.12,30.04,29.90,10,4,1,8,2,,0.00,8,Snow,193
2012-12-29,30,26,19,27,22,14,86,81,74,30.20,29.97,29.85,10,5,1,16,8,21,0.02,8,Snow,302
2012-12-30,33,21,10,24,14,6,81,74,64,30.33,30.23,30.04,10,7,4,15,11,23,0.00,0,,238
2012-12-31,33,24,14,23,18,5,74,69,64,30.16,30.05,29.99,10,9,4,18,13,30,0.00,1,,283